Time;durP1;ratioP1;P1;durP2;ratioP2;P2;SDS_P1;SDS_P2;PMS_P1;PMS_P2;Temp;Humidity;BMP_temperature;BMP_pressure;BME280_temperature;BME280_humidity;BME280_pressure;Samples;Min_cycle;Max_cycle;Signal;HPM_P1;HPM_P2
2022/06/01 05:55:55;;;;;;;;;;;;;;;18.08;69.70;96831.47;4221429;27;10219;-65
2022/06/01 05:57:57;;;;;;;;;;;;;;;18.30;69.23;96835.88;4215196;28;5635;-65
2022/06/01 06:00:01;;;;;;;;;;;;;;;18.45;69.18;96831.84;4224110;28;5700;-65
2022/06/01 06:02:04;;;;;;;;;;;;;;;18.54;69.02;96833.06;4230328;28;5605;-64
2022/06/01 06:04:07;;;;;;;;;;;;;;;18.62;68.85;96833.50;4231068;28;5703;-65
2022/06/01 06:06:12;;;;;;;;;;;;;;;18.69;68.85;96832.53;4230859;28;5630;-64
2022/06/01 06:08:15;;;;;;;;;;;;;;;18.76;68.62;96827.84;4232215;28;7675;-64
2022/06/01 06:10:18;;;;;;;;;;;;;;;18.85;68.54;96826.38;4230531;28;5624;-65
2022/06/01 06:12:23;;;;;;;;;;;;;;;18.96;68.03;96832.72;4232093;28;5747;-65
2022/06/01 06:14:26;;;;;;;;;;;;;;;19.09;67.90;96833.16;4228599;28;5811;-65
2022/06/01 06:16:31;;;;;;;;;;;;;;;19.10;67.85;96831.31;4229819;28;7699;-65
2022/06/01 06:18:34;;;;;;;;;;;;;;;19.15;67.69;96828.72;4230453;28;5633;-64
2022/06/01 06:20:37;;;;;;;;;;;;;;;19.20;67.58;96828.78;4213506;28;5567;-65
2022/06/01 06:22:41;;;;;;;;;;;;;;;19.20;67.32;96834.94;4230001;28;5616;-65
2022/06/01 06:24:44;;;;;;;;;;;;;;;19.20;67.32;96845.66;4230136;28;5616;-65
2022/06/01 06:26:47;;;;;;;;;;;;;;;19.24;67.23;96853.19;4229933;28;5628;-65
2022/06/01 06:28:51;;;;;;;;;;;;;;;19.30;67.25;96861.06;4212426;28;5702;-65
2022/06/01 06:30:55;;;;;;;;;;;;;;;19.32;67.12;96852.78;4226820;28;5612;-65
2022/06/01 06:32:58;;;;;;;;;;;;;;;19.35;66.89;96852.28;4206026;28;5806;-66
2022/06/01 06:35:00;;;;;;;;;;;;;;;19.41;66.71;96851.31;4222543;28;6318;-65
2022/06/01 06:37:04;;;;;;;;;;;;;;;19.42;66.40;96844.88;4230993;28;5617;-65
2022/06/01 06:39:08;;;;;;;;;;;;;;;19.44;66.54;96842.75;4222736;28;5647;-66
2022/06/01 06:41:12;;;;;;;;;;;;;;;19.45;66.59;96852.41;4228157;28;5852;-65
2022/06/01 06:43:15;;;;;;;;;;;;;;;19.49;66.09;96842.84;4227536;28;5895;-66
2022/06/01 06:45:20;;;;;;;;;;;;;;;19.54;66.18;96845.56;4223591;28;7676;-66
2022/06/01 06:47:23;;;;;;;;;;;;;;;19.58;66.09;96845.91;4213928;28;5531;-66
2022/06/01 06:49:26;;;;;;;;;;;;;;;19.62;65.83;96849.75;4214343;28;6229;-67
2022/06/01 06:51:29;;;;;;;;;;;;;;;19.67;65.98;96855.16;4214269;28;5603;-66
2022/06/01 06:53:33;;;;;;;;;;;;;;;19.72;65.77;96855.22;4214565;28;5523;-67
2022/06/01 06:55:36;;;;;;;;;;;;;;;19.79;65.45;96850.47;4192023;28;5635;-65
2022/06/01 06:57:39;;;;;;;;;;;;;;;19.88;65.38;96856.22;4203245;28;5547;-66
2022/06/01 06:59:42;;;;;;;;;;;;;;;19.91;65.18;96858.38;4203385;28;5573;-67
2022/06/01 07:01:46;;;;;;;;;;;;;;;19.98;65.44;96856.34;4202658;28;5548;-66
2022/06/01 07:03:50;;;;;;;;;;;;;;;20.02;64.82;96852.06;4202989;28;5539;-66
2022/06/01 07:06:17;;;;;;;;;;;;;;;20.09;64.63;96866.13;4202998;28;5532;-67
2022/06/01 07:08:20;;;;;;;;;;;;;;;20.12;64.77;96867.47;4203300;28;5611;-66
2022/06/01 07:10:23;;;;;;;;;;;;;;;20.14;64.47;96866.16;4203127;28;5555;-66
2022/06/01 07:12:28;;;;;;;;;;;;;;;20.19;64.79;96884.22;4202548;28;5568;-66
2022/06/01 07:14:34;;;;;;;;;;;;;;;20.22;64.41;96883.69;4203226;28;5551;-66
2022/06/01 07:16:38;;;;;;;;;;;;;;;20.24;64.45;96877.00;4202436;28;5645;-65
2022/06/01 07:18:46;;;;;;;;;;;;;;;20.28;64.51;96878.16;4203004;28;5567;-66
2022/06/01 07:20:49;;;;;;;;;;;;;;;20.38;64.03;96881.97;4203197;28;5555;-66
2022/06/01 07:22:56;;;;;;;;;;;;;;;20.45;64.18;96882.63;4202786;28;5792;-67
2022/06/01 07:24:59;;;;;;;;;;;;;;;20.49;63.93;96878.38;4203174;28;5540;-66
2022/06/01 07:27:03;;;;;;;;;;;;;;;20.52;63.96;96889.44;4202705;28;5540;-67
2022/06/01 07:29:07;;;;;;;;;;;;;;;20.54;63.91;96883.78;4202845;28;5614;-67
2022/06/01 07:31:10;;;;;;;;;;;;;;;20.55;63.62;96891.59;4202401;28;5524;-67
2022/06/01 07:33:13;;;;;;;;;;;;;;;20.54;63.83;96892.66;4184957;28;5658;-67
2022/06/01 07:35:19;;;;;;;;;;;;;;;20.56;63.51;96890.53;4202424;28;6237;-67
2022/06/01 07:44:27;;;;;;;;;;;;;;;20.71;63.28;96892.53;4202065;28;6212;-66
2022/06/01 07:46:30;;;;;;;;;;;;;;;20.73;63.00;96895.81;4216523;28;5688;-67
2022/06/01 07:48:34;;;;;;;;;;;;;;;20.75;62.84;96893.66;4218721;28;5726;-67
2022/06/01 07:50:58;;;;;;;;;;;;;;;20.84;62.68;96891.34;4219213;28;5732;-66
2022/06/01 07:53:02;;;;;;;;;;;;;;;20.88;62.67;96887.88;4219249;28;5733;-67
2022/06/01 07:55:06;;;;;;;;;;;;;;;20.94;62.79;96886.00;4218793;28;5934;-67
2022/06/01 07:57:10;;;;;;;;;;;;;;;21.00;62.60;96878.81;4218890;28;6285;-67
2022/06/01 07:59:14;;;;;;;;;;;;;;;21.01;62.28;96875.06;4219305;28;5609;-67
2022/06/01 08:01:20;;;;;;;;;;;;;;;21.02;62.58;96879.38;4218850;28;5648;-66
2022/06/01 08:03:24;;;;;;;;;;;;;;;21.07;62.33;96885.59;4219285;28;5609;-66
2022/06/01 08:05:28;;;;;;;;;;;;;;;21.05;62.32;96884.22;4218861;28;5604;-66
2022/06/01 08:07:33;;;;;;;;;;;;;;;21.03;62.24;96889.03;4217882;28;5727;-66
2022/06/01 08:09:37;;;;;;;;;;;;;;;21.05;61.96;96886.91;4219354;28;5127;-66
2022/06/01 08:14:01;;;;;;;;;;;;;;;21.10;61.87;96885.09;4218682;28;5695;-66
2022/06/01 08:16:04;;;;;;;;;;;;;;;21.12;61.72;96887.50;4216692;28;5656;-67
2022/06/01 08:18:08;;;;;;;;;;;;;;;21.13;61.66;96891.81;4218963;28;5617;-66
2022/06/01 08:20:12;;;;;;;;;;;;;;;21.12;61.59;96887.50;4218464;28;5605;-66
2022/06/01 08:22:16;;;;;;;;;;;;;;;21.11;61.89;96891.25;4218597;28;5661;-67
2022/06/01 08:24:20;;;;;;;;;;;;;;;21.10;61.62;96895.84;4218697;28;5629;-66
2022/06/01 08:26:25;;;;;;;;;;;;;;;21.08;61.52;96894.47;4218769;28;6293;-67
2022/06/01 08:28:29;;;;;;;;;;;;;;;21.05;61.90;96893.09;4200703;28;5723;-66
2022/06/01 08:30:35;;;;;;;;;;;;;;;21.06;61.77;96893.91;4218521;28;5712;-68
2022/06/01 08:32:38;;;;;;;;;;;;;;;21.08;61.73;96903.34;4218378;28;5612;-67
2022/06/01 08:34:41;;;;;;;;;;;;;;;21.09;61.70;96912.22;4218544;28;6421;-65
2022/06/01 08:36:46;;;;;;;;;;;;;;;21.10;61.28;96919.22;4218487;28;5652;-66
2022/06/01 08:38:49;;;;;;;;;;;;;;;21.11;61.48;96918.16;4218412;28;5623;-65
2022/06/01 08:41:04;;;;;;;;;;;;;;;21.12;61.27;96914.38;4218386;28;5632;-65
2022/06/01 08:43:11;;;;;;;;;;;;;;;21.16;61.12;96923.53;4218689;28;5609;-66
2022/06/01 08:45:14;;;;;;;;;;;;;;;21.18;61.35;96919.56;4216383;28;5715;-65
2022/06/01 08:47:23;;;;;;;;;;;;;;;21.21;61.17;96915.53;4217602;28;5609;-66
2022/06/01 08:49:29;;;;;;;;;;;;;;;21.21;61.11;96919.03;4218178;28;5694;-66
2022/06/01 08:51:33;;;;;;;;;;;;;;;21.22;61.02;96919.84;4218115;28;5676;-67
2022/06/01 08:53:37;;;;;;;;;;;;;;;21.21;60.96;96919.03;4218233;28;6318;-66
2022/06/01 08:55:51;;;;;;;;;;;;;;;21.21;60.74;96920.91;4217795;28;8369;-66
2022/06/01 08:58:00;;;;;;;;;;;;;;;21.19;60.64;96931.94;4218296;28;5600;-66
2022/06/01 09:00:07;;;;;;;;;;;;;;;21.17;60.80;96938.59;4218138;28;5726;-66
2022/06/01 09:02:28;;;;;;;;;;;;;;;21.14;61.13;96942.63;4215677;28;5608;-66
2022/06/01 09:04:42;;;;;;;;;;;;;;;21.14;60.75;96945.31;4201010;28;5751;-66
2022/06/01 09:06:51;;;;;;;;;;;;;;;21.13;61.08;96940.19;4201203;28;5727;-66
2022/06/01 09:09:00;;;;;;;;;;;;;;;21.13;60.91;96948.25;4200383;28;5743;-66
2022/06/01 09:11:07;;;;;;;;;;;;;;;21.11;60.71;96947.72;4201014;28;5959;-66
2022/06/01 09:13:14;;;;;;;;;;;;;;;21.09;60.96;96949.84;4201318;28;5735;-67
2022/06/01 09:15:21;;;;;;;;;;;;;;;21.09;60.70;96952.53;4200879;28;6428;-68
2022/06/01 09:17:24;;;;;;;;;;;;;;;21.09;60.73;96947.16;4200833;28;5798;-67
2022/06/01 09:19:30;;;;;;;;;;;;;;;21.08;60.99;96951.72;4200677;28;5735;-66
2022/06/01 09:23:55;;;;;;;;;;;;;;;21.07;60.64;96960.06;4201074;28;5755;-66
2022/06/01 09:25:58;;;;;;;;;;;;;;;21.06;60.87;96958.41;4200944;28;5802;-66
2022/06/01 09:28:05;;;;;;;;;;;;;;;21.09;60.42;96949.84;4201144;28;5771;-66
2022/06/01 09:30:25;;;;;;;;;;;;;;;21.10;60.75;96948.78;4201090;28;5747;-66
2022/06/01 09:32:31;;;;;;;;;;;;;;;21.14;60.84;96949.88;4200149;28;5751;-66
2022/06/01 09:34:40;;;;;;;;;;;;;;;21.14;60.38;96948.00;4200957;28;6404;-66
2022/06/01 09:36:54;;;;;;;;;;;;;;;21.11;60.54;96940.47;4201022;28;5786;-66
2022/06/01 09:39:03;;;;;;;;;;;;;;;21.11;60.64;96939.66;4201050;28;5735;-67
2022/06/01 09:41:10;;;;;;;;;;;;;;;21.11;60.69;96935.09;4183300;28;5782;-66
2022/06/01 09:43:25;;;;;;;;;;;;;;;21.12;60.64;96935.91;4200793;28;7747;-66
2022/06/01 09:45:43;;;;;;;;;;;;;;;21.13;60.51;96932.94;4203663;28;5612;-66
2022/06/01 09:47:47;;;;;;;;;;;;;;;21.14;60.21;96929.19;4203265;28;5531;-67
2022/06/01 09:49:54;;;;;;;;;;;;;;;21.15;60.09;96940.75;4200776;28;5793;-66
2022/06/01 09:52:00;;;;;;;;;;;;;;;21.17;60.24;96939.41;4182822;28;5654;-66
2022/06/01 09:54:13;;;;;;;;;;;;;;;21.21;59.87;96939.72;4200606;28;5689;-66
2022/06/01 09:56:29;;;;;;;;;;;;;;;21.28;59.66;96934.97;4200692;28;5074;-66
2022/06/01 10:06:22;;;;;;;;;;;;;;;21.48;59.56;96921.66;4165445;28;5692;-67
2022/06/01 10:08:29;;;;;;;;;;;;;;;21.53;59.30;96920.09;4165669;28;5835;-66
2022/06/01 10:10:32;;;;;;;;;;;;;;;21.51;58.94;96914.94;4165598;28;5771;-67
2022/06/01 10:12:42;;;;;;;;;;;;;;;21.56;59.34;96919.56;4165779;28;6402;-66
2022/06/01 10:14:53;;;;;;;;;;;;;;;21.61;59.09;96908.81;4165718;28;5727;-66
2022/06/01 10:17:17;;;;;;;;;;;;;;;21.68;58.84;96915.59;4165369;28;5704;-66
2022/06/01 10:19:28;;;;;;;;;;;;;;;21.74;58.96;96919.13;4165347;28;5684;-66
2022/06/01 10:21:48;;;;;;;;;;;;;;;21.77;58.63;96924.00;4165446;28;5692;-67
2022/06/01 10:23:58;;;;;;;;;;;;;;;21.79;58.98;96925.34;4165699;28;5772;-66
2022/06/01 10:26:09;;;;;;;;;;;;;;;21.80;58.57;96931.53;4149166;28;5735;-66
2022/06/01 10:28:18;;;;;;;;;;;;;;;21.80;58.54;96929.66;4165532;28;5965;-66
2022/06/01 10:30:46;;;;;;;;;;;;;;;21.76;58.97;96936.63;4160692;28;5839;-66
2022/06/01 10:32:58;;;;;;;;;;;;;;;21.74;58.81;96936.06;4193795;28;5716;-66
2022/06/01 10:35:10;;;;;;;;;;;;;;;21.73;58.96;96947.09;4218172;28;5752;-70
2022/06/01 10:37:23;;;;;;;;;;;;;;;21.71;58.64;96951.94;4198331;28;5657;-67
2022/06/01 10:39:32;;;;;;;;;;;;;;;21.68;58.94;96955.16;4212766;28;5816;-67
2022/06/01 10:41:41;;;;;;;;;;;;;;;21.64;58.69;96952.19;4212350;28;5714;-67
2022/06/01 10:43:54;;;;;;;;;;;;;;;21.61;58.58;96954.56;4212578;28;5687;-67
2022/06/01 10:46:12;;;;;;;;;;;;;;;21.58;58.50;96958.56;4217907;28;5751;-68
2022/06/01 10:48:24;;;;;;;;;;;;;;;21.55;58.51;96966.38;4211225;28;5631;-67
2022/06/01 10:50:30;;;;;;;;;;;;;;;21.50;58.86;96970.63;4203060;28;5627;-67
2022/06/01 10:52:35;;;;;;;;;;;;;;;21.46;58.68;96964.16;4200170;28;5627;-67
2022/06/01 10:54:45;;;;;;;;;;;;;;;21.45;58.46;96969.78;4203136;28;5710;-67
2022/06/01 10:56:49;;;;;;;;;;;;;;;21.43;58.97;96980.00;4218479;28;5718;-67
2022/06/01 10:58:58;;;;;;;;;;;;;;;21.41;58.81;96982.94;4219136;28;5621;-67
2022/06/01 11:01:09;;;;;;;;;;;;;;;21.39;58.95;96982.38;4209336;28;5635;-67
2022/06/01 11:03:44;;;;;;;;;;;;;;;21.37;58.80;96983.69;4217645;28;6998;-67
2022/06/01 11:05:57;;;;;;;;;;;;;;;21.37;58.82;96984.50;4218937;28;5699;-67
2022/06/01 11:08:11;;;;;;;;;;;;;;;21.39;58.56;96984.25;4184947;28;6414;-67
2022/06/01 11:10:20;;;;;;;;;;;;;;;21.39;59.02;96977.00;4204636;28;5639;-67
2022/06/01 11:12:35;;;;;;;;;;;;;;;21.43;58.61;96975.44;4217333;28;5730;-67
2022/06/01 11:15:06;;;;;;;;;;;;;;;21.46;58.77;96974.91;4213600;28;5723;-66
2022/06/01 11:17:23;;;;;;;;;;;;;;;21.51;58.45;96977.63;4218071;28;5820;-67
2022/06/01 11:19:49;;;;;;;;;;;;;;;21.57;58.18;96972.28;4219109;28;5612;-67
2022/06/01 11:22:05;;;;;;;;;;;;;;;21.58;58.29;96979.28;4218665;28;7389;-68
2022/06/01 11:24:29;;;;;;;;;;;;;;;21.57;58.64;96974.97;4218050;28;5691;-67
2022/06/01 11:26:54;;;;;;;;;;;;;;;21.55;58.75;96977.94;4219424;28;5616;-67
2022/06/01 11:29:14;;;;;;;;;;;;;;;21.55;58.62;96967.19;4214782;28;5651;-67
2022/06/01 11:31:29;;;;;;;;;;;;;;;21.54;58.38;96960.19;4210943;28;6210;-67
2022/06/01 11:33:37;;;;;;;;;;;;;;;21.54;58.88;96970.13;4215552;28;5628;-66
2022/06/01 11:35:44;;;;;;;;;;;;;;;21.55;58.65;96969.06;4216346;28;5635;-67
2022/06/01 11:37:54;;;;;;;;;;;;;;;21.55;58.59;96969.06;4220331;28;5606;-66
2022/06/01 11:40:01;;;;;;;;;;;;;;;21.53;58.83;96979.28;4215596;28;5615;-67
2022/06/01 11:42:13;;;;;;;;;;;;;;;21.49;58.86;96979.75;4214297;28;5616;-65
2022/06/01 11:44:25;;;;;;;;;;;;;;;21.45;58.71;96985.94;4217179;28;5612;-65
2022/06/01 11:46:40;;;;;;;;;;;;;;;21.42;59.21;96989.13;4215961;28;6270;-67
2022/06/01 11:48:49;;;;;;;;;;;;;;;21.39;59.11;96990.44;4208291;28;5738;-66
2022/06/01 11:51:08;;;;;;;;;;;;;;;21.38;58.95;96988.81;4216834;28;5846;-67
2022/06/01 11:53:14;;;;;;;;;;;;;;;21.37;59.35;96984.50;4216611;28;5688;-66
2022/06/01 11:55:42;;;;;;;;;;;;;;;21.37;58.89;96989.88;4214812;28;5873;-66
2022/06/01 11:57:51;;;;;;;;;;;;;;;21.37;59.39;96981.00;4217778;28;5112;-66
2022/06/01 12:00:04;;;;;;;;;;;;;;;21.36;59.18;96987.47;4214536;28;5630;-66
2022/06/01 12:02:40;;;;;;;;;;;;;;;21.35;59.48;96994.72;4215424;28;5857;-65
2022/06/01 12:04:56;;;;;;;;;;;;;;;21.34;59.24;96985.03;4214885;28;5624;-68
2022/06/01 12:07:07;;;;;;;;;;;;;;;21.35;59.56;96977.78;4214451;28;5624;-67
2022/06/01 12:09:24;;;;;;;;;;;;;;;21.35;59.53;96973.22;4214775;28;5619;-68
2022/06/01 12:11:46;;;;;;;;;;;;;;;21.32;59.79;96976.41;4208487;28;5810;-70
2022/06/01 12:13:55;;;;;;;;;;;;;;;21.31;59.72;96982.06;4213411;28;5786;-70
2022/06/01 12:16:20;;;;;;;;;;;;;;;21.30;59.64;96981.25;4209045;28;5697;-70
2022/06/01 12:18:29;;;;;;;;;;;;;;;21.32;60.06;96972.91;4218320;28;5677;-70
2022/06/01 12:20:45;;;;;;;;;;;;;;;21.30;60.11;96975.88;4209718;28;5615;-70
2022/06/01 12:28:34;;;;;;;;;;;;;;;21.31;59.74;96966.72;4188684;28;5636;-71
2022/06/01 12:30:48;;;;;;;;;;;;;;;21.30;60.30;96959.75;4211818;28;5644;-70
2022/06/01 12:33:09;;;;;;;;;;;;;;;21.29;60.27;96963.47;4217774;28;5833;-71
2022/06/01 12:35:17;;;;;;;;;;;;;;;21.25;60.12;96954.28;4215961;28;5681;-70
2022/06/01 12:37:22;;;;;;;;;;;;;;;21.19;60.25;96940.00;4211651;28;6324;-72
2022/06/01 12:39:33;;;;;;;;;;;;;;;21.12;60.23;96942.06;4217078;28;5870;-70
2022/06/01 12:41:40;;;;;;;;;;;;;;;21.08;60.74;96948.22;4215664;28;5814;-72
2022/06/01 12:43:49;;;;;;;;;;;;;;;21.04;60.96;96947.91;4214657;28;5668;-72
2022/06/01 12:45:54;;;;;;;;;;;;;;;21.08;60.60;96940.16;4209250;28;5716;-71
2022/06/01 12:48:00;;;;;;;;;;;;;;;21.14;60.84;96928.38;4216678;28;5616;-70
2022/06/01 12:50:10;;;;;;;;;;;;;;;21.22;60.90;96925.22;4204677;28;5647;-69
2022/06/01 12:52:17;;;;;;;;;;;;;;;21.29;60.39;96916.94;4216501;28;5719;-69
2022/06/01 12:54:29;;;;;;;;;;;;;;;21.28;60.60;96913.44;4216111;28;5956;-69
2022/06/01 12:56:33;;;;;;;;;;;;;;;21.30;60.89;96915.91;4200102;28;7687;-67
2022/06/01 12:58:37;;;;;;;;;;;;;;;21.35;60.44;96910.56;4215585;28;5730;-65
2022/06/01 13:00:46;;;;;;;;;;;;;;;21.40;60.75;96910.56;4217735;28;5728;-64
2022/06/01 13:02:49;;;;;;;;;;;;;;;21.43;60.88;96907.38;4217262;28;5634;-65
2022/06/01 13:04:57;;;;;;;;;;;;;;;21.43;60.62;96897.44;4217795;28;5624;-65
2022/06/01 13:07:01;;;;;;;;;;;;;;;21.42;60.77;96886.94;4208899;28;5635;-65
2022/06/01 13:09:08;;;;;;;;;;;;;;;21.44;61.07;96896.38;4217024;28;5654;-64
2022/06/01 13:11:22;;;;;;;;;;;;;;;21.49;60.77;96887.50;4208366;28;5540;-64
2022/06/01 13:13:28;;;;;;;;;;;;;;;21.55;61.23;96880.28;4204599;28;5612;-63
2022/06/01 13:15:31;;;;;;;;;;;;;;;21.55;60.76;96875.72;4213185;28;5668;-63
2022/06/01 13:17:35;;;;;;;;;;;;;;;21.54;60.88;96870.59;4211349;28;5608;-65
2022/06/01 13:19:39;;;;;;;;;;;;;;;21.55;61.03;96881.09;4211311;28;5627;-63
2022/06/01 13:21:46;;;;;;;;;;;;;;;21.59;61.05;96878.69;4216995;28;5700;-65
2022/06/01 13:23:55;;;;;;;;;;;;;;;21.65;60.92;96885.72;4216012;28;5620;-66
2022/06/01 13:26:03;;;;;;;;;;;;;;;21.73;60.93;96888.72;4214898;28;5741;-70
2022/06/01 13:28:11;;;;;;;;;;;;;;;21.79;60.94;96887.69;4216378;28;5759;-71
2022/06/01 13:30:16;;;;;;;;;;;;;;;21.81;60.56;96879.34;4217156;28;5807;-71
2022/06/01 13:32:30;;;;;;;;;;;;;;;21.85;60.92;96879.63;4216358;28;5620;-71
2022/06/01 13:34:42;;;;;;;;;;;;;;;21.88;60.71;96885.31;4207234;28;5699;-70
2022/06/01 13:36:45;;;;;;;;;;;;;;;21.86;60.71;96871.31;4206728;28;5628;-71
2022/06/01 13:38:50;;;;;;;;;;;;;;;21.86;61.04;96871.31;4208987;28;5728;-71
2022/06/01 13:40:57;;;;;;;;;;;;;;;21.84;60.65;96872.63;4206357;28;6629;-70
2022/06/01 13:43:04;;;;;;;;;;;;;;;21.85;60.46;96885.00;4190449;28;5642;-70
2022/06/01 13:47:37;;;;;;;;;;;;;;;21.83;60.46;96876.38;4172065;28;5753;-69
2022/06/01 13:49:42;;;;;;;;;;;;;;;21.83;60.21;96863.72;4170714;28;5681;-71
2022/06/01 13:51:49;;;;;;;;;;;;;;;21.84;60.30;96884.19;4148898;28;5600;-71
2022/06/01 13:53:52;;;;;;;;;;;;;;;21.82;60.17;96897.09;4163894;28;5620;-71
2022/06/01 13:55:59;;;;;;;;;;;;;;;21.79;59.85;96894.94;4164937;28;5704;-70
2022/06/01 13:58:11;;;;;;;;;;;;;;;21.76;60.29;96906.22;4165031;28;5700;-71
2022/06/01 14:00:32;;;;;;;;;;;;;;;21.76;59.76;96906.22;4146132;28;5616;-72
2022/06/01 14:02:38;;;;;;;;;;;;;;;21.74;60.15;96894.91;4150243;28;5731;-69
2022/06/01 14:04:44;;;;;;;;;;;;;;;21.72;60.25;96907.81;4165678;28;5075;-69
2022/06/01 14:06:53;;;;;;;;;;;;;;;21.69;59.74;96889.50;4173950;28;5665;-70
2022/06/01 14:08:57;;;;;;;;;;;;;;;21.68;60.08;96855.59;4184941;28;5684;-68
2022/06/01 14:11:03;;;;;;;;;;;;;;;21.70;59.58;96842.69;4168969;28;5100;-67
2022/06/01 14:13:09;;;;;;;;;;;;;;;21.73;59.68;96867.19;4166963;28;5835;-75
2022/06/01 14:15:12;;;;;;;;;;;;;;;21.77;59.22;96872.88;4151524;28;5623;-73
2022/06/01 14:17:19;;;;;;;;;;;;;;;21.80;59.52;96866.97;4168768;28;5593;-76
2022/06/01 14:19:22;;;;;;;;;;;;;;;21.83;59.65;96871.00;4208888;28;5613;-79
2022/06/01 14:21:26;;;;;;;;;;;;;;;21.86;59.30;96870.47;4219730;28;5948;-71
2022/06/01 14:23:29;;;;;;;;;;;;;;;21.88;59.07;96869.16;4215872;28;5532;-69
2022/06/01 14:30:20;;;;;;;;;;;;;;;21.83;59.32;96882.56;4201015;28;6411;-70
2022/06/01 14:32:25;;;;;;;;;;;;;;;21.86;58.94;96883.91;4216429;28;5629;-72
2022/06/01 14:34:29;;;;;;;;;;;;;;;21.85;58.72;96885.00;4219287;28;5794;-71
2022/06/01 14:36:36;;;;;;;;;;;;;;;21.88;58.87;96885.31;4198765;28;5810;-72
2022/06/01 14:38:39;;;;;;;;;;;;;;;21.87;58.88;96889.06;4219618;28;5828;-70
2022/06/01 14:40:42;;;;;;;;;;;;;;;21.82;58.77;96889.03;4220012;28;5617;-72
2022/06/01 14:42:45;;;;;;;;;;;;;;;21.78;58.69;96880.69;4219561;28;5661;-75
2022/06/01 14:44:48;;;;;;;;;;;;;;;21.77;59.01;96879.06;4222738;28;5808;-71
2022/06/01 14:46:52;;;;;;;;;;;;;;;21.73;58.97;96863.69;4216905;28;5617;-69
2022/06/01 14:49:03;;;;;;;;;;;;;;;21.71;58.96;96879.28;4219739;28;5640;-70
2022/06/01 14:51:11;;;;;;;;;;;;;;;21.71;58.58;96863.13;4218334;28;5636;-75
2022/06/01 14:53:22;;;;;;;;;;;;;;;21.71;58.91;96847.81;4217932;28;5616;-70
2022/06/01 14:55:26;;;;;;;;;;;;;;;21.71;58.42;96847.00;4217611;28;5740;-73
2022/06/01 14:57:28;;;;;;;;;;;;;;;21.72;58.97;96864.75;4218857;28;5654;-76
2022/06/01 14:59:31;;;;;;;;;;;;;;;21.69;58.50;96859.91;4223444;28;5601;-70
2022/06/01 15:01:39;;;;;;;;;;;;;;;21.68;58.90;96859.09;4204418;28;5778;-72
2022/06/01 15:03:45;;;;;;;;;;;;;;;21.67;58.84;96862.06;4217012;28;5612;-73
2022/06/01 15:05:49;;;;;;;;;;;;;;;21.67;58.87;96853.97;4214959;28;5634;-70
2022/06/01 15:07:52;;;;;;;;;;;;;;;21.66;58.63;96860.44;4210405;28;5647;-73
2022/06/01 15:09:55;;;;;;;;;;;;;;;21.62;59.04;96870.09;4214538;28;5781;-73
2022/06/01 15:11:58;;;;;;;;;;;;;;;21.58;58.66;96880.56;4215710;28;5633;-71
2022/06/01 15:14:01;;;;;;;;;;;;;;;21.56;58.89;96880.03;4202527;28;5741;-72
2022/06/01 15:16:06;;;;;;;;;;;;;;;21.54;58.84;96859.84;4212004;28;5668;-71
2022/06/01 15:18:10;;;;;;;;;;;;;;;21.53;58.98;96866.31;4219357;28;5668;-71
2022/06/01 15:20:15;;;;;;;;;;;;;;;21.50;58.73;96854.97;4218529;28;5649;-72
2022/06/01 15:22:20;;;;;;;;;;;;;;;21.51;58.73;96859.28;4218545;28;5669;-73
2022/06/01 15:24:23;;;;;;;;;;;;;;;21.46;58.98;96867.31;4216409;28;5517;-70
2022/06/01 15:26:27;;;;;;;;;;;;;;;21.42;59.14;96855.47;4219351;28;7709;-70
2022/06/01 15:28:34;;;;;;;;;;;;;;;21.44;58.77;96860.59;4218491;28;5783;-70
2022/06/01 15:40:00;;;;;;;;;;;;;;;21.39;59.01;96865.94;4212770;28;5679;-69
2022/06/01 15:42:05;;;;;;;;;;;;;;;21.34;59.07;96858.66;4218135;28;5691;-69
2022/06/01 15:44:08;;;;;;;;;;;;;;;21.35;59.05;96870.22;4212535;28;5978;-70
2022/06/01 15:46:19;;;;;;;;;;;;;;;21.31;59.03;96869.94;4187419;28;5117;-69
2022/06/01 15:48:22;;;;;;;;;;;;;;;21.29;59.35;96885.50;4202281;28;5686;-69
2022/06/01 15:50:27;;;;;;;;;;;;;;;21.28;59.27;96891.94;4213172;28;5796;-69
2022/06/01 15:52:30;;;;;;;;;;;;;;;21.25;59.54;96884.38;4214632;28;5613;-67
2022/06/01 15:54:35;;;;;;;;;;;;;;;21.21;59.45;96885.97;4214721;28;5752;-70
2022/06/01 15:56:37;;;;;;;;;;;;;;;21.20;59.21;96884.34;4215537;28;5707;-68
2022/06/01 15:58:40;;;;;;;;;;;;;;;21.18;59.15;96870.34;4215703;28;5767;-65
2022/06/01 16:00:45;;;;;;;;;;;;;;;21.14;59.65;96847.72;4214285;28;5640;-64
2022/06/01 16:02:48;;;;;;;;;;;;;;;21.12;59.53;96841.81;4210588;28;5916;-65
2022/06/01 16:04:53;;;;;;;;;;;;;;;21.13;59.39;96848.81;4204972;28;5700;-65
2022/06/01 16:06:56;;;;;;;;;;;;;;;21.14;59.35;96831.59;4230667;28;5609;-65
2022/06/01 16:08:59;;;;;;;;;;;;;;;21.13;59.62;96824.63;4220140;28;5827;-66
2022/06/01 16:11:03;;;;;;;;;;;;;;;21.11;59.66;96822.19;4214957;28;5845;-65
2022/06/01 16:13:06;;;;;;;;;;;;;;;21.11;59.60;96821.38;4210155;28;5763;-65
2022/06/01 16:15:10;;;;;;;;;;;;;;;21.11;59.96;96818.69;4197687;28;5649;-65
2022/06/01 16:17:19;;;;;;;;;;;;;;;21.12;60.00;96841.81;4218143;28;5656;-65
2022/06/01 16:19:22;;;;;;;;;;;;;;;21.11;59.93;96881.31;4216175;28;7163;-65
2022/06/01 16:21:25;;;;;;;;;;;;;;;21.11;60.15;96891.25;4209583;28;6437;-65
2022/06/01 16:23:28;;;;;;;;;;;;;;;21.10;60.30;96878.91;4183678;28;5731;-65
2022/06/01 16:25:37;;;;;;;;;;;;;;;21.11;59.99;96872.44;4201672;28;5682;-65
2022/06/01 16:27:42;;;;;;;;;;;;;;;21.12;60.32;96850.69;4213564;28;5621;-67
2022/06/01 16:29:46;;;;;;;;;;;;;;;21.13;60.25;96824.63;4210318;28;5631;-65
2022/06/01 16:31:49;;;;;;;;;;;;;;;21.11;60.49;96842.88;4208093;28;5624;-65
2022/06/01 16:33:52;;;;;;;;;;;;;;;21.08;60.71;96848.78;4215337;28;5712;-65
2022/06/01 16:35:56;;;;;;;;;;;;;;;21.06;60.84;96849.00;4218028;28;5637;-65
2022/06/01 16:37:59;;;;;;;;;;;;;;;21.03;60.83;96856.78;4214342;28;5715;-65
2022/06/01 16:40:03;;;;;;;;;;;;;;;21.00;61.11;96865.38;4210094;28;5718;-65
2022/06/01 16:42:06;;;;;;;;;;;;;;;20.98;60.86;96856.78;4212174;28;5632;-65
2022/06/01 16:44:15;;;;;;;;;;;;;;;20.95;60.86;96841.94;4207966;28;5711;-65
2022/06/01 16:46:19;;;;;;;;;;;;;;;20.93;61.06;96844.09;4210129;28;5621;-65
2022/06/01 16:48:24;;;;;;;;;;;;;;;20.89;60.94;96845.69;4209345;28;5664;-65
2022/06/01 16:50:26;;;;;;;;;;;;;;;20.88;61.32;96839.50;4204457;28;5782;-65
2022/06/01 16:52:29;;;;;;;;;;;;;;;20.89;61.22;96830.38;4201116;28;5710;-65
2022/06/01 16:54:32;;;;;;;;;;;;;;;20.90;61.16;96821.25;4207533;28;7082;-65
2022/06/01 16:56:36;;;;;;;;;;;;;;;20.92;61.45;96824.47;4211030;28;5758;-64
2022/06/01 16:58:39;;;;;;;;;;;;;;;20.93;61.27;96818.03;4201083;28;5851;-65
2022/06/01 17:00:44;;;;;;;;;;;;;;;20.95;61.41;96812.38;4207155;28;5787;-65
2022/06/01 17:02:47;;;;;;;;;;;;;;;20.95;61.49;96815.06;4204673;28;5758;-66
2022/06/01 17:04:50;;;;;;;;;;;;;;;20.97;61.30;96818.34;4201446;28;5774;-65
2022/06/01 17:06:59;;;;;;;;;;;;;;;20.97;61.33;96814.84;4212785;28;5860;-65
2022/06/01 17:09:07;;;;;;;;;;;;;;;20.99;61.69;96828.81;4211433;28;5747;-65
2022/06/01 17:11:10;;;;;;;;;;;;;;;21.01;61.83;96829.38;4207370;28;5787;-65
2022/06/01 17:13:12;;;;;;;;;;;;;;;21.02;61.53;96831.78;4214676;28;5849;-65
2022/06/01 17:15:18;;;;;;;;;;;;;;;21.03;61.59;96829.91;4213383;28;6435;-65
2022/06/01 17:17:27;;;;;;;;;;;;;;;21.03;61.89;96827.22;4208101;28;5755;-66
2022/06/01 17:19:35;;;;;;;;;;;;;;;21.02;61.75;96823.72;4214057;28;5687;-66
2022/06/01 17:21:40;;;;;;;;;;;;;;;21.02;61.68;96822.94;4214513;28;5792;-66
2022/06/01 17:23:43;;;;;;;;;;;;;;;21.03;62.07;96819.16;4199649;28;5738;-66
2022/06/01 17:25:46;;;;;;;;;;;;;;;21.01;61.88;96826.69;4213740;28;5821;-67
2022/06/01 17:27:49;;;;;;;;;;;;;;;21.02;62.07;96822.94;4210336;28;5802;-66
2022/06/01 17:29:52;;;;;;;;;;;;;;;21.00;61.92;96819.69;4211695;28;5755;-66
2022/06/01 17:31:55;;;;;;;;;;;;;;;20.99;61.95;96818.06;4214285;28;5727;-66
2022/06/01 17:34:00;;;;;;;;;;;;;;;20.99;62.32;96821.56;4206729;28;5736;-66
2022/06/01 17:36:04;;;;;;;;;;;;;;;21.00;62.12;96814.31;4213324;28;5755;-66
2022/06/01 17:38:07;;;;;;;;;;;;;;;21.01;61.99;96818.63;4214705;28;5704;-66
2022/06/01 17:40:11;;;;;;;;;;;;;;;21.00;62.05;96820.50;4214343;28;5723;-66
2022/06/01 17:42:13;;;;;;;;;;;;;;;21.01;62.18;96821.31;4214111;28;5747;-66
2022/06/01 17:44:16;;;;;;;;;;;;;;;21.01;62.14;96824.81;4214365;28;6429;-66
2022/06/01 17:46:19;;;;;;;;;;;;;;;21.02;62.28;96820.25;4212547;28;5092;-66
2022/06/01 17:48:26;;;;;;;;;;;;;;;21.01;62.38;96832.88;4201590;28;6380;-66